FTTC

Abeche Airport

Chad
METAR FTTC 211300Z 00000KT CAVOK 38/15 Q1006
Observed Flight Rules
Feb-21 @ 13:00 UTC (16 hours ago) Visual Flight Rules
Wind Visibility Clouds
Calm 10,000+ meters
  • Clear skies
Temperatures Readings
Current 38°C / 100°F
Dewpoint 15°C / 59°F
Humidity 25%
Altimeter 29.7" Hg
Pressure 1006 hPa
Elevation 549
METAR FTTC 211300Z 00000KT CAVOK 38/15 Q1006
Observed Flight Rules
Feb-21 @ 13:00 UTC
(16 hours ago)
VFR
Wind Visibility
Calm 10,000+ meters
Clouds
  • Clear skies
Temperature Dewpoint
38°C / 100°F 15°C / 59°F
Humidity Altimeter Pressure
25% 29.7" Hg 1006 hPa